Time;durP1;ratioP1;P1;durP2;ratioP2;P2;SDS_P1;SDS_P2;PMS_P1;PMS_P2;Temp;Humidity;BMP_temperature;BMP_pressure;BME280_temperature;BME280_humidity;BME280_pressure;Samples;Min_cycle;Max_cycle;Signal;HPM_P1;HPM_P2
2021/11/03 00:00:18;;;;;;;11.50;7.43;;;8.10;99.90;;;;;;5036674;28;20166;-84
2021/11/03 00:02:44;;;;;;;11.80;7.10;;;8.00;99.90;;;;;;5020557;28;20036;-84
2021/11/03 00:05:13;;;;;;;10.93;6.20;;;8.00;99.90;;;;;;5037180;28;20056;-85
2021/11/03 00:07:39;;;;;;;12.80;7.05;;;8.10;99.90;;;;;;5021480;28;20025;-84
2021/11/03 00:10:07;;;;;;;11.87;7.40;;;8.00;99.90;;;;;;5037432;28;20612;-84
2021/11/03 00:12:33;;;;;;;11.10;6.50;;;8.00;99.90;;;;;;5037993;28;20036;-85
2021/11/03 00:14:59;;;;;;;10.97;6.93;;;8.00;99.90;;;;;;5037855;28;20063;-84
2021/11/03 00:17:27;;;;;;;13.23;7.30;;;8.00;99.90;;;;;;5021048;28;20097;-83
2021/11/03 00:19:53;;;;;;;11.17;6.93;;;8.10;99.90;;;;;;5035954;28;20087;-84
2021/11/03 00:22:19;;;;;;;11.37;6.80;;;8.10;99.90;;;;;;5019456;28;20029;-84
2021/11/03 00:24:45;;;;;;;11.20;6.73;;;8.10;99.90;;;;;;5054016;28;20477;-84
2021/11/03 00:27:11;;;;;;;10.63;6.77;;;8.20;99.90;;;;;;5036188;28;20025;-83
2021/11/03 00:29:38;;;;;;;10.70;6.70;;;8.20;99.90;;;;;;5035437;28;20477;-84
2021/11/03 00:32:08;;;;;;;12.97;6.93;;;8.10;99.90;;;;;;5035611;28;20052;-83
2021/11/03 00:34:35;;;;;;;12.47;7.27;;;8.00;99.90;;;;;;5035986;28;20045;-83
2021/11/03 00:37:01;;;;;;;11.10;7.17;;;8.00;99.90;;;;;;5035838;28;20409;-84
2021/11/03 00:39:28;;;;;;;12.27;7.13;;;7.90;99.90;;;;;;5035464;28;20113;-84
2021/11/03 00:41:55;;;;;;;10.97;6.90;;;7.90;99.90;;;;;;5035285;28;20120;-84
2021/11/03 00:44:22;;;;;;;13.37;7.47;;;7.90;99.90;;;;;;5036162;28;20021;-84
2021/11/03 00:46:49;;;;;;;9.70;6.77;;;7.90;99.90;;;;;;5036115;28;20033;-83
2021/11/03 00:49:16;;;;;;;16.00;6.50;;;7.70;99.90;;;;;;5035274;28;20116;-85
2021/11/03 00:51:42;;;;;;;12.23;7.47;;;7.70;99.90;;;;;;5035721;28;20033;-83
2021/11/03 00:54:09;;;;;;;9.63;6.43;;;7.70;99.90;;;;;;5035776;28;20413;-83
2021/11/03 00:56:35;;;;;;;13.10;6.60;;;7.70;99.90;;;;;;5035542;28;20037;-84
2021/11/03 00:59:02;;;;;;;22.47;7.00;;;7.70;99.90;;;;;;5035067;28;20171;-84
2021/11/03 01:01:28;;;;;;;10.73;6.20;;;7.60;99.90;;;;;;5035639;28;20025;-83
2021/11/03 01:03:54;;;;;;;11.53;6.20;;;7.50;99.90;;;;;;5019244;28;20535;-84
2021/11/03 01:06:21;;;;;;;10.60;6.03;;;7.60;99.90;;;;;;5035489;28;20028;-84
2021/11/03 01:08:46;;;;;;;9.70;6.17;;;7.50;99.90;;;;;;5034778;28;20107;-84
2021/11/03 01:11:12;;;;;;;9.73;6.43;;;7.50;99.90;;;;;;5035050;28;20032;-83
2021/11/03 01:13:38;;;;;;;10.93;6.27;;;7.40;99.90;;;;;;5068604;23;20055;-82
2021/11/03 01:16:04;;;;;;;11.27;6.73;;;7.40;99.90;;;;;;5038991;28;20452;-82
2021/11/03 01:18:32;;;;;;;10.87;6.33;;;7.40;99.90;;;;;;5038086;28;20052;-82
2021/11/03 01:20:59;;;;;;;10.00;6.47;;;7.40;99.90;;;;;;5070970;28;20047;-82
2021/11/03 01:23:25;;;;;;;10.73;6.37;;;7.40;99.90;;;;;;5071315;28;20028;-82
2021/11/03 01:25:54;;;;;;;9.83;5.97;;;7.50;99.90;;;;;;5071375;28;20046;-82
2021/11/03 01:28:20;;;;;;;9.27;5.67;;;7.50;99.90;;;;;;5071257;28;20047;-82
2021/11/03 01:30:46;;;;;;;9.53;5.63;;;7.50;99.90;;;;;;5053921;28;20025;-82
2021/11/03 01:33:18;;;;;;;9.53;5.70;;;7.50;99.90;;;;;;5071062;28;20400;-82
2021/11/03 01:35:44;;;;;;;8.80;5.50;;;7.50;99.90;;;;;;5071170;28;20097;-82
2021/11/03 01:38:11;;;;;;;10.20;5.47;;;7.60;99.90;;;;;;5037881;28;20047;-82
2021/11/03 01:40:43;;;;;;;8.30;4.97;;;7.60;99.90;;;;;;5038253;28;20162;-84
2021/11/03 01:43:13;;;;;;;8.55;5.53;;;7.60;99.90;;;;;;5072165;28;20078;-83
2021/11/03 01:45:39;;;;;;;8.33;5.00;;;7.70;99.90;;;;;;5073838;28;20034;-83
2021/11/03 01:48:08;;;;;;;10.87;5.67;;;7.70;99.90;;;;;;5038907;28;20656;-83
2021/11/03 01:50:39;;;;;;;9.77;5.80;;;7.70;99.90;;;;;;5071780;28;20024;-82
2021/11/03 01:53:11;;;;;;;10.00;5.50;;;7.70;99.90;;;;;;5038276;28;20517;-83
2021/11/03 01:55:57;;;;;;;9.50;5.53;;;7.80;99.90;;;;;;5073192;28;20036;-83
2021/11/03 01:58:27;;;;;;;11.40;5.70;;;7.80;99.90;;;;;;5074271;28;20036;-83
2021/11/03 02:00:56;;;;;;;10.23;5.87;;;7.70;99.90;;;;;;5073208;28;20027;-84
2021/11/03 02:03:26;;;;;;;10.30;5.53;;;7.60;99.90;;;;;;5074409;28;20025;-84
2021/11/03 02:05:58;;;;;;;9.25;5.25;;;7.50;99.90;;;;;;5057590;28;20520;-83
2021/11/03 02:08:25;;;;;;;8.60;5.60;;;7.50;99.90;;;;;;5057543;28;20029;-83
2021/11/03 02:10:51;;;;;;;9.57;4.97;;;7.40;99.90;;;;;;5073433;28;20393;-84
2021/11/03 02:13:17;;;;;;;9.63;5.87;;;7.30;99.90;;;;;;5057164;28;20033;-84
2021/11/03 02:15:44;;;;;;;9.43;5.57;;;7.40;99.90;;;;;;5074113;28;20405;-83
2021/11/03 02:18:14;;;;;;;8.10;5.33;;;7.30;99.90;;;;;;5057482;28;20048;-83
2021/11/03 02:20:43;;;;;;;9.60;5.47;;;7.30;99.90;;;;;;5075381;28;20025;-84
2021/11/03 02:23:31;;;;;;;9.13;6.32;;;7.20;99.90;;;;;;5079272;28;20527;-84
2021/11/03 02:26:04;;;;;;;12.43;5.77;;;7.20;99.90;;;;;;5078273;28;20083;-84
2021/11/03 02:28:31;;;;;;;8.67;5.60;;;7.20;99.90;;;;;;5060988;28;20120;-83
2021/11/03 02:30:58;;;;;;;9.17;5.83;;;7.10;99.90;;;;;;5044437;28;20059;-83
2021/11/03 02:33:27;;;;;;;11.00;5.47;;;7.10;99.90;;;;;;5077625;28;20032;-84
2021/11/03 02:35:57;;;;;;;9.57;6.00;;;7.00;99.90;;;;;;5077773;28;20032;-84
2021/11/03 02:38:37;;;;;;;9.33;4.87;;;7.10;99.90;;;;;;5079153;28;20032;-84
2021/11/03 02:41:08;;;;;;;10.18;5.38;;;7.10;99.90;;;;;;5076685;28;20042;-84
2021/11/03 02:43:43;;;;;;;9.47;5.80;;;7.10;99.90;;;;;;5044438;28;20033;-83
2021/11/03 02:46:11;;;;;;;11.03;5.23;;;7.10;99.90;;;;;;5060552;28;20108;-84
2021/11/03 02:48:39;;;;;;;8.47;5.30;;;7.00;99.90;;;;;;5077088;28;20026;-84
2021/11/03 02:51:11;;;;;;;9.70;5.23;;;7.00;99.90;;;;;;5061696;28;20037;-83
2021/11/03 02:53:48;;;;;;;10.57;5.80;;;7.00;99.90;;;;;;5061105;28;20032;-84
2021/11/03 02:56:17;;;;;;;12.17;5.73;;;7.00;99.90;;;;;;5078104;28;20043;-84
2021/11/03 02:58:43;;;;;;;9.25;5.38;;;7.00;99.90;;;;;;5076770;28;20028;-83
2021/11/03 03:01:30;;;;;;;10.37;6.20;;;7.00;99.90;;;;;;5060057;28;20040;-83
2021/11/03 03:03:57;;;;;;;13.30;6.20;;;7.00;99.90;;;;;;5060994;28;20021;-83
2021/11/03 03:06:26;;;;;;;8.57;5.80;;;7.00;99.90;;;;;;5079260;28;20032;-84
2021/11/03 03:08:55;;;;;;;10.03;5.80;;;7.00;99.90;;;;;;5043532;28;20511;-83
2021/11/03 03:11:23;;;;;;;10.13;5.77;;;7.00;99.90;;;;;;5077026;28;20039;-84
2021/11/03 03:13:49;;;;;;;9.47;5.80;;;7.00;99.90;;;;;;5076928;28;20038;-83
2021/11/03 03:16:18;;;;;;;7.73;5.13;;;7.00;99.90;;;;;;5076667;28;20469;-83
2021/11/03 03:18:44;;;;;;;9.40;5.70;;;7.00;99.90;;;;;;5078019;28;20021;-84
2021/11/03 03:21:12;;;;;;;9.23;5.90;;;6.90;99.90;;;;;;5059713;28;20028;-83
2021/11/03 03:23:41;;;;;;;9.00;5.73;;;6.90;99.90;;;;;;5076912;28;20064;-84
2021/11/03 03:26:09;;;;;;;9.83;5.60;;;6.90;99.90;;;;;;5077527;28;20387;-84
2021/11/03 03:28:36;;;;;;;8.52;5.63;;;6.90;99.90;;;;;;5043235;28;20025;-83
2021/11/03 03:31:03;;;;;;;10.27;6.00;;;7.00;99.90;;;;;;5059506;28;20507;-84
2021/11/03 03:33:28;;;;;;;10.63;6.07;;;7.00;99.90;;;;;;5076590;28;20031;-84
2021/11/03 03:35:54;;;;;;;9.90;6.00;;;7.00;99.90;;;;;;5059959;28;20036;-84
2021/11/03 03:38:20;;;;;;;9.37;6.03;;;7.00;99.90;;;;;;5060160;28;20546;-83
2021/11/03 03:40:46;;;;;;;9.73;6.23;;;7.00;99.90;;;;;;5077413;28;20032;-83
2021/11/03 03:43:12;;;;;;;9.87;5.93;;;7.00;99.90;;;;;;5077615;28;20017;-84
2021/11/03 03:45:38;;;;;;;13.33;8.27;;;7.00;99.90;;;;;;5043500;28;20029;-84
2021/11/03 03:48:04;;;;;;;11.03;6.73;;;7.00;99.90;;;;;;5076581;28;20051;-83
2021/11/03 03:50:32;;;;;;;11.70;6.23;;;7.00;99.90;;;;;;5042558;28;20564;-83
2021/11/03 03:52:58;;;;;;;9.83;6.30;;;7.10;99.90;;;;;;5042641;28;20028;-83
2021/11/03 03:55:24;;;;;;;10.23;5.90;;;7.20;99.90;;;;;;5077826;28;20031;-83
2021/11/03 03:57:50;;;;;;;9.50;5.90;;;7.30;99.90;;;;;;5042840;28;20374;-84
2021/11/03 04:00:19;;;;;;;11.20;5.80;;;7.30;99.90;;;;;;5077204;28;20036;-84
2021/11/03 04:02:52;;;;;;;10.60;6.43;;;7.40;99.90;;;;;;5076720;28;20027;-83
2021/11/03 04:05:19;;;;;;;10.93;6.25;;;7.30;99.90;;;;;;5075957;28;20030;-83
2021/11/03 04:07:47;;;;;;;10.38;6.25;;;7.20;99.90;;;;;;5042751;28;20078;-83
2021/11/03 04:10:14;;;;;;;12.13;6.60;;;7.20;99.90;;;;;;5075379;28;20028;-84
2021/11/03 04:12:41;;;;;;;11.60;6.60;;;7.20;99.90;;;;;;5075694;28;20507;-83
2021/11/03 04:15:09;;;;;;;13.03;7.00;;;7.20;99.90;;;;;;5059167;28;20029;-84
2021/11/03 04:17:38;;;;;;;10.03;5.93;;;7.30;99.90;;;;;;5075510;28;20059;-84
2021/11/03 04:20:07;;;;;;;10.00;6.00;;;7.40;99.90;;;;;;5059215;28;20028;-84
2021/11/03 04:22:33;;;;;;;9.97;6.03;;;7.40;99.90;;;;;;5059974;28;20036;-83
2021/11/03 04:24:59;;;;;;;10.83;6.93;;;7.40;99.90;;;;;;5060163;28;20021;-83
2021/11/03 04:27:25;;;;;;;12.67;7.13;;;7.50;99.90;;;;;;5060669;28;20028;-83
2021/11/03 04:29:51;;;;;;;12.23;6.97;;;7.40;99.90;;;;;;5076448;28;20021;-84
2021/11/03 04:32:17;;;;;;;11.03;6.20;;;7.40;99.90;;;;;;5077043;28;20067;-83
2021/11/03 04:34:43;;;;;;;11.50;6.27;;;7.30;99.90;;;;;;5043533;28;20024;-83
2021/11/03 04:37:10;;;;;;;11.17;5.87;;;7.30;99.90;;;;;;5059490;28;20028;-84
2021/11/03 04:39:38;;;;;;;11.50;5.90;;;7.40;99.90;;;;;;5060818;28;20029;-84
2021/11/03 04:42:05;;;;;;;9.43;5.90;;;7.40;99.90;;;;;;5060547;28;20036;-84
2021/11/03 04:44:31;;;;;;;11.43;6.00;;;7.40;99.90;;;;;;5043245;28;20054;-84
2021/11/03 04:47:00;;;;;;;9.02;5.50;;;7.40;99.90;;;;;;5059798;28;20032;-84
2021/11/03 04:49:30;;;;;;;9.33;5.50;;;7.40;99.90;;;;;;5042957;28;20055;-84
2021/11/03 04:51:58;;;;;;;10.07;5.73;;;7.40;99.90;;;;;;5076524;28;20047;-83
2021/11/03 04:54:28;;;;;;;10.57;5.80;;;7.40;99.90;;;;;;5060720;28;20029;-84
2021/11/03 04:56:54;;;;;;;9.57;5.97;;;7.30;99.90;;;;;;5043062;28;20032;-83
2021/11/03 04:59:20;;;;;;;10.77;5.93;;;7.30;99.90;;;;;;5075810;28;20550;-83
2021/11/03 05:01:49;;;;;;;;;;;7.40;99.90;;;;;;5060117;28;20028;-84
2021/11/03 05:04:16;;;;;;;10.93;5.87;;;7.40;99.90;;;;;;5059453;28;20402;-83
2021/11/03 05:06:45;;;;;;;10.43;5.67;;;7.30;99.90;;;;;;5059202;28;20048;-83
2021/11/03 05:09:14;;;;;;;10.73;6.33;;;7.30;99.90;;;;;;5042534;28;20032;-84
2021/11/03 05:11:40;;;;;;;12.10;6.60;;;7.20;99.90;;;;;;5075613;28;20503;-84
2021/11/03 05:14:06;;;;;;;14.00;6.60;;;7.30;99.90;;;;;;5058459;28;20401;-83
2021/11/03 05:16:36;;;;;;;10.60;6.22;;;7.20;99.90;;;;;;5076011;28;20036;-83
2021/11/03 05:19:03;;;;;;;9.80;6.00;;;7.20;99.90;;;;;;5075244;28;20063;-83
2021/11/03 05:21:36;;;;;;;11.75;6.38;;;7.20;99.90;;;;;;5075967;28;20512;-83
2021/11/03 05:24:05;;;;;;;11.23;6.43;;;7.20;99.90;;;;;;5058492;28;20054;-83
2021/11/03 05:26:31;;;;;;;11.03;6.40;;;7.20;99.90;;;;;;5075511;28;20040;-83
2021/11/03 05:28:57;;;;;;;10.23;6.17;;;7.20;99.90;;;;;;5057930;28;20595;-83
2021/11/03 05:31:24;;;;;;;11.17;6.30;;;7.20;99.90;;;;;;5074924;28;20066;-84
2021/11/03 05:33:50;;;;;;;12.13;6.40;;;7.10;99.90;;;;;;5058386;28;20036;-83
2021/11/03 05:36:23;;;;;;;12.73;6.53;;;7.20;99.90;;;;;;5076527;28;20033;-82
2021/11/03 05:38:49;;;;;;;14.63;6.03;;;7.20;99.90;;;;;;5058134;28;20028;-83
2021/11/03 05:41:14;;;;;;;10.33;5.90;;;7.10;99.90;;;;;;5058269;28;20393;-83
2021/11/03 05:43:40;;;;;;;10.67;6.40;;;7.20;99.90;;;;;;5076395;28;20032;-83
2021/11/03 05:46:06;;;;;;;10.83;5.97;;;7.20;99.90;;;;;;5074957;28;20025;-84
2021/11/03 05:48:34;;;;;;;11.37;6.27;;;7.20;99.90;;;;;;5076037;28;20034;-84
2021/11/03 05:51:00;;;;;;;10.67;5.70;;;7.20;99.90;;;;;;5075897;28;20092;-83
2021/11/03 05:53:26;;;;;;;9.40;5.90;;;7.20;99.90;;;;;;5057767;28;20056;-83
2021/11/03 05:55:52;;;;;;;12.17;6.63;;;7.30;99.90;;;;;;5057940;28;20028;-83
2021/11/03 05:58:17;;;;;;;9.97;6.13;;;7.20;99.90;;;;;;5076478;28;20025;-83
2021/11/03 06:00:43;;;;;;;10.90;5.97;;;7.20;99.90;;;;;;5074438;28;20481;-84
2021/11/03 06:03:09;;;;;;;9.13;6.00;;;7.30;99.90;;;;;;5076535;28;20032;-84
2021/11/03 06:05:35;;;;;;;9.77;6.50;;;7.30;99.90;;;;;;5057837;28;20044;-84
2021/11/03 06:08:05;;;;;;;11.00;5.60;;;7.20;99.90;;;;;;5058599;28;20476;-83
2021/11/03 06:10:39;;;;;;;11.30;6.10;;;7.20;99.90;;;;;;5058028;28;20033;-83
2021/11/03 06:13:08;;;;;;;11.97;6.30;;;7.20;99.90;;;;;;5058655;28;20042;-84
2021/11/03 06:15:34;;;;;;;11.13;6.80;;;7.20;99.90;;;;;;5057719;28;20090;-84
2021/11/03 06:18:01;;;;;;;13.27;6.43;;;7.20;99.90;;;;;;5074136;28;20040;-84
2021/11/03 06:20:27;;;;;;;10.93;6.17;;;7.10;99.90;;;;;;5057118;28;20473;-83
2021/11/03 06:22:53;;;;;;;9.50;5.80;;;7.10;99.90;;;;;;5058114;28;20040;-84
2021/11/03 06:25:20;;;;;;;11.70;6.37;;;7.10;99.90;;;;;;5058615;28;20063;-84
2021/11/03 06:27:46;;;;;;;10.97;6.37;;;7.10;99.90;;;;;;5075526;28;20020;-84
2021/11/03 06:30:18;;;;;;;11.00;6.53;;;7.20;99.90;;;;;;5074689;28;20021;-84
2021/11/03 06:32:44;;;;;;;13.77;6.47;;;7.10;99.90;;;;;;5057970;28;20040;-83
2021/11/03 06:35:10;;;;;;;10.87;6.13;;;7.10;99.90;;;;;;5076028;28;20031;-84
2021/11/03 06:37:39;;;;;;;12.07;6.40;;;7.20;99.90;;;;;;5075997;28;20024;-83
2021/11/03 06:40:08;;;;;;;12.55;6.30;;;7.20;99.90;;;;;;5041400;28;20032;-84
2021/11/03 06:42:34;;;;;;;11.55;6.10;;;7.20;99.90;;;;;;5075651;28;20036;-82
2021/11/03 06:45:00;;;;;;;11.10;6.53;;;7.20;99.90;;;;;;5074375;28;20146;-83
2021/11/03 06:47:26;;;;;;;10.27;6.53;;;7.10;99.90;;;;;;5058014;28;20040;-83
2021/11/03 06:49:52;;;;;;;11.13;6.60;;;7.20;99.90;;;;;;5057641;28;20065;-84
2021/11/03 06:52:18;;;;;;;12.07;6.93;;;7.20;99.90;;;;;;5075929;28;20033;-83
2021/11/03 06:54:44;;;;;;;10.67;6.77;;;7.20;99.90;;;;;;5075988;28;20425;-83
2021/11/03 06:57:10;;;;;;;11.90;6.57;;;7.20;99.90;;;;;;5058288;28;20055;-83
2021/11/03 06:59:38;;;;;;;14.00;7.03;;;7.20;99.90;;;;;;5075207;28;20481;-84
2021/11/03 07:02:04;;;;;;;10.67;6.63;;;7.30;99.90;;;;;;5041252;28;20024;-84
2021/11/03 07:04:30;;;;;;;12.77;6.70;;;7.20;99.90;;;;;;5041298;28;20036;-83
2021/11/03 07:06:57;;;;;;;15.10;6.33;;;7.20;99.90;;;;;;5058281;28;20481;-84
2021/11/03 07:09:23;;;;;;;14.53;6.87;;;7.30;99.90;;;;;;5060798;28;20063;-84
2021/11/03 07:11:49;;;;;;;12.33;6.43;;;7.30;99.90;;;;;;5080217;28;20033;-84
2021/11/03 07:14:15;;;;;;;11.53;5.73;;;7.30;99.90;;;;;;5071169;23;20049;-84
2021/11/03 07:16:41;;;;;;;13.27;6.03;;;7.30;99.90;;;;;;5076354;28;20027;-85
2021/11/03 07:19:07;;;;;;;12.47;6.00;;;7.40;99.90;;;;;;5074597;28;20028;-84
2021/11/03 07:21:33;;;;;;;12.93;5.43;;;7.40;99.90;;;;;;5075795;28;20512;-83
2021/11/03 07:23:59;;;;;;;8.93;5.90;;;7.40;99.90;;;;;;5075953;28;20081;-83
2021/11/03 07:26:24;;;;;;;9.80;5.40;;;7.40;99.90;;;;;;5075618;28;20496;-83
2021/11/03 07:28:51;;;;;;;9.93;5.50;;;7.50;99.90;;;;;;5042681;28;20035;-84
2021/11/03 07:31:16;;;;;;;12.53;5.80;;;7.50;99.90;;;;;;5040539;28;20122;-84
2021/11/03 07:33:43;;;;;;;10.00;5.83;;;7.50;99.90;;;;;;5057976;28;20476;-84
2021/11/03 07:36:12;;;;;;;11.53;5.93;;;7.50;99.90;;;;;;5041637;28;20024;-84
2021/11/03 07:38:38;;;;;;;10.97;5.30;;;7.50;99.90;;;;;;5041699;28;20154;-83
2021/11/03 07:41:04;;;;;;;11.03;5.50;;;7.60;99.90;;;;;;5057431;28;20036;-84
2021/11/03 07:43:32;;;;;;;14.20;6.47;;;7.70;99.90;;;;;;5057735;28;20086;-84
2021/11/03 07:45:58;;;;;;;10.80;6.15;;;7.60;99.90;;;;;;5076241;28;20352;-83
2021/11/03 07:48:26;;;;;;;10.23;6.10;;;7.60;99.90;;;;;;5058115;28;20028;-83
2021/11/03 07:51:05;;;;;;;13.40;6.57;;;7.70;99.90;;;;;;5057711;28;20031;-84
2021/11/03 07:53:33;;;;;;;10.45;6.03;;;7.70;99.90;;;;;;5057770;28;20024;-83
2021/11/03 07:56:04;;;;;;;11.53;7.00;;;7.80;99.90;;;;;;5041423;28;20032;-84
2021/11/03 07:58:33;;;;;;;9.63;6.30;;;7.80;99.90;;;;;;5076372;28;20392;-84
2021/11/03 08:01:02;;;;;;;13.60;7.45;;;7.80;99.90;;;;;;5040434;28;20064;-84
2021/11/03 08:03:28;;;;;;;13.45;7.22;;;7.80;99.90;;;;;;5040500;28;20124;-84
2021/11/03 08:05:54;;;;;;;12.50;7.53;;;7.90;99.90;;;;;;5075789;28;20052;-84
2021/11/03 08:08:23;;;;;;;13.77;7.47;;;7.90;99.90;;;;;;5058060;28;20028;-84
2021/11/03 08:10:53;;;;;;;15.17;8.30;;;7.90;99.90;;;;;;5057508;28;20020;-84
2021/11/03 08:13:22;;;;;;;15.80;8.68;;;8.00;99.90;;;;;;5057482;28;20504;-84
2021/11/03 08:15:51;;;;;;;13.50;8.00;;;8.00;99.90;;;;;;5058089;28;20054;-84
2021/11/03 08:18:22;;;;;;;13.83;7.97;;;8.00;99.90;;;;;;5073991;28;20131;-83
2021/11/03 08:20:48;;;;;;;14.97;8.07;;;8.00;99.90;;;;;;5039864;28;20088;-83
2021/11/03 08:23:14;;;;;;;13.77;8.23;;;8.10;99.90;;;;;;5073510;28;20215;-84
2021/11/03 08:25:41;;;;;;;14.40;8.67;;;8.10;99.90;;;;;;5074111;28;20037;-84
2021/11/03 08:28:07;;;;;;;15.27;8.03;;;8.10;99.90;;;;;;5042087;28;20047;-84
2021/11/03 08:30:34;;;;;;;17.00;8.77;;;8.10;99.90;;;;;;5076117;28;20036;-84
2021/11/03 08:33:09;;;;;;;14.47;8.57;;;8.10;99.90;;;;;;5041831;28;20127;-84
2021/11/03 08:35:37;;;;;;;17.13;9.07;;;8.10;99.90;;;;;;5076537;28;20021;-84
2021/11/03 08:38:06;;;;;;;15.03;8.67;;;8.10;99.90;;;;;;5041511;28;20032;-84
2021/11/03 08:40:33;;;;;;;;;;;8.10;99.90;;;;;;5076919;28;20029;-84
2021/11/03 08:43:01;;;;;;;18.33;8.93;;;8.20;99.90;;;;;;5075062;28;19974;-85
2021/11/03 08:45:28;;;;;;;16.17;9.02;;;8.20;99.90;;;;;;5042021;28;20024;-84
2021/11/03 08:47:54;;;;;;;15.27;8.27;;;8.20;99.90;;;;;;5041817;28;20047;-84
2021/11/03 08:50:27;;;;;;;14.30;8.23;;;8.20;99.90;;;;;;5040545;28;20024;-84
2021/11/03 08:52:53;;;;;;;15.50;9.13;;;8.30;99.90;;;;;;5058523;28;20459;-84
2021/11/03 08:55:20;;;;;;;14.90;8.47;;;8.30;99.90;;;;;;5076154;28;20113;-84
2021/11/03 08:57:46;;;;;;;15.87;8.77;;;8.30;99.90;;;;;;5058421;28;20497;-84
2021/11/03 09:00:16;;;;;;;14.97;9.00;;;8.30;99.90;;;;;;5058459;28;20067;-85
2021/11/03 09:02:42;;;;;;;15.73;8.33;;;8.30;99.90;;;;;;5058280;28;20078;-83
2021/11/03 09:05:08;;;;;;;17.83;9.47;;;8.40;99.90;;;;;;5042126;28;20032;-84
2021/11/03 09:07:35;;;;;;;18.10;10.03;;;8.40;99.90;;;;;;5042071;28;20488;-84
2021/11/03 09:10:07;;;;;;;14.90;9.30;;;8.40;99.90;;;;;;5074934;28;20031;-84
2021/11/03 09:12:33;;;;;;;18.50;9.57;;;8.40;99.90;;;;;;5074793;28;20060;-83
2021/11/03 09:15:00;;;;;;;15.00;9.30;;;8.40;99.90;;;;;;5075309;28;20033;-84
2021/11/03 09:17:27;;;;;;;19.30;9.67;;;8.40;99.90;;;;;;5059184;28;20400;-84
2021/11/03 09:19:54;;;;;;;15.00;8.97;;;8.40;99.90;;;;;;5075930;28;20622;-84
2021/11/03 09:22:21;;;;;;;15.77;9.67;;;8.40;99.90;;;;;;5074772;28;20058;-84
2021/11/03 09:24:47;;;;;;;15.67;8.97;;;8.50;99.90;;;;;;5075505;28;20039;-84
2021/11/03 09:27:16;;;;;;;18.27;10.30;;;8.40;99.90;;;;;;5058400;28;20052;-85
2021/11/03 09:29:47;;;;;;;16.13;9.48;;;8.40;99.90;;;;;;5057210;28;20032;-84
2021/11/03 09:32:16;;;;;;;21.43;10.80;;;8.40;99.90;;;;;;5058242;28;20040;-84
2021/11/03 09:34:51;;;;;;;19.83;9.90;;;8.40;99.90;;;;;;5059103;28;20032;-84
2021/11/03 09:37:22;;;;;;;24.07;10.50;;;8.40;99.90;;;;;;5058410;28;20412;-84
2021/11/03 09:39:53;;;;;;;18.17;10.00;;;8.40;99.90;;;;;;5057629;28;20029;-86
2021/11/03 09:42:21;;;;;;;21.03;9.77;;;8.40;99.90;;;;;;5057634;28;20095;-84
2021/11/03 09:44:50;;;;;;;17.40;9.87;;;8.40;99.90;;;;;;5058012;28;20035;-85
2021/11/03 09:47:22;;;;;;;;;;;8.40;99.90;;;;;;5042633;28;20033;-84
2021/11/03 09:49:57;;;;;;;17.93;10.00;;;8.40;99.90;;;;;;5057872;28;19916;-84
2021/11/03 09:52:32;;;;;;;20.20;10.50;;;8.50;99.90;;;;;;5042061;28;20143;-84
2021/11/03 09:55:17;;;;;;;22.70;11.27;;;8.50;99.90;;;;;;5074917;28;20515;-83
2021/11/03 09:57:54;;;;;;;17.23;9.90;;;8.50;99.90;;;;;;5059070;28;20392;-84
2021/11/03 10:00:29;;;;;;;20.40;11.60;;;8.50;99.90;;;;;;5074662;28;20028;-84
2021/11/03 10:03:22;;;;;;;18.97;10.23;;;8.60;99.90;;;;;;5058355;28;20548;-84
2021/11/03 10:05:54;;;;;;;17.63;9.60;;;8.60;99.90;;;;;;5074698;28;20401;-84
2021/11/03 10:08:22;;;;;;;18.17;10.20;;;8.60;99.90;;;;;;5058183;28;20082;-84
2021/11/03 10:10:56;;;;;;;19.58;9.88;;;8.60;99.90;;;;;;5040291;28;20032;-84
2021/11/03 10:13:21;;;;;;;18.40;10.60;;;8.70;99.90;;;;;;5075956;28;20048;-83
2021/11/03 10:16:14;;;;;;;20.70;10.23;;;8.70;99.90;;;;;;5074030;28;20025;-85
2021/11/03 10:18:55;;;;;;;17.20;10.83;;;8.70;99.90;;;;;;5056489;28;20499;-85
2021/11/03 10:21:25;;;;;;;22.13;10.93;;;8.70;99.90;;;;;;5076226;28;20110;-84
2021/11/03 10:24:15;;;;;;;20.13;11.17;;;8.80;99.90;;;;;;5041413;28;20493;-85
2021/11/03 10:27:04;;;;;;;23.37;11.03;;;8.80;99.90;;;;;;5050285;28;20436;-84
2021/11/03 10:29:48;;;;;;;18.48;10.27;;;8.70;99.90;;;;;;5056807;28;20056;-84
2021/11/03 10:32:26;;;;;;;18.67;10.50;;;8.70;99.90;;;;;;5058333;28;20066;-85
2021/11/03 10:35:24;;;;;;;15.90;9.37;;;8.70;99.90;;;;;;5074586;28;20032;-84
2021/11/03 10:37:59;;;;;;;21.20;10.00;;;8.80;99.90;;;;;;5041134;28;20128;-86
2021/11/03 10:40:46;;;;;;;20.47;10.40;;;8.80;99.90;;;;;;5057672;28;20047;-83
2021/11/03 10:43:28;;;;;;;19.77;10.60;;;8.80;99.90;;;;;;5079564;28;20028;-84
2021/11/03 10:46:26;;;;;;;19.07;10.03;;;8.80;99.90;;;;;;5046124;28;20032;-85
2021/11/03 10:49:10;;;;;;;23.63;10.75;;;8.90;99.90;;;;;;5078582;28;20025;-85
2021/11/03 10:51:39;;;;;;;21.27;11.50;;;8.90;99.90;;;;;;5045104;28;20037;-84
2021/11/03 10:54:12;;;;;;;22.38;11.27;;;8.90;99.90;;;;;;5044796;28;20062;-83
2021/11/03 10:57:02;;;;;;;20.50;11.93;;;8.90;99.90;;;;;;5061545;28;20065;-84
2021/11/03 10:59:31;;;;;;;23.30;11.33;;;8.90;99.90;;;;;;5079305;28;20397;-84
2021/11/03 11:02:19;;;;;;;19.65;11.40;;;8.90;99.90;;;;;;5041554;28;20037;-84
2021/11/03 11:04:46;;;;;;;22.63;11.57;;;8.90;99.90;;;;;;5046349;28;20040;-84
2021/11/03 11:07:29;;;;;;;24.47;11.63;;;8.80;99.90;;;;;;5078957;28;20548;-84
2021/11/03 11:09:58;;;;;;;20.80;10.97;;;8.80;99.90;;;;;;5045434;28;20025;-85
2021/11/03 11:12:30;;;;;;;20.83;10.32;;;8.80;99.90;;;;;;5078956;28;20540;-85
2021/11/03 11:15:00;;;;;;;21.37;12.10;;;8.80;99.90;;;;;;5079142;28;20310;-84
2021/11/03 11:17:32;;;;;;;20.47;12.50;;;8.80;99.90;;;;;;5062568;28;20511;-84
2021/11/03 11:20:10;;;;;;;20.77;11.57;;;8.80;99.90;;;;;;5078292;28;20028;-84
2021/11/03 11:22:55;;;;;;;20.00;11.03;;;8.90;99.90;;;;;;5044330;28;20039;-84
2021/11/03 11:25:47;;;;;;;18.20;10.80;;;8.90;99.90;;;;;;5077853;28;20052;-85
2021/11/03 11:28:46;;;;;;;16.57;10.30;;;8.90;99.90;;;;;;5061234;28;20032;-84
2021/11/03 11:31:59;;;;;;;18.97;10.70;;;8.90;99.90;;;;;;5077972;28;20132;-84
2021/11/03 11:34:54;;;;;;;23.43;11.93;;;9.00;99.90;;;;;;5047809;28;20062;-85
2021/11/03 11:37:39;;;;;;;21.80;12.50;;;9.00;99.90;;;;;;5077821;28;20029;-84
2021/11/03 11:40:21;;;;;;;23.60;11.43;;;9.00;99.90;;;;;;5060455;28;20060;-84
2021/11/03 11:43:01;;;;;;;21.93;11.97;;;9.00;99.90;;;;;;5044547;28;20119;-84
2021/11/03 11:45:31;;;;;;;22.83;12.33;;;9.00;99.90;;;;;;5061732;28;20058;-84
2021/11/03 11:48:11;;;;;;;21.93;12.10;;;9.00;99.90;;;;;;5045452;28;20028;-84
2021/11/03 11:50:48;;;;;;;21.87;12.23;;;9.00;99.90;;;;;;5060327;28;20131;-84
2021/11/03 11:53:30;;;;;;;20.23;11.60;;;9.00;99.90;;;;;;5076913;28;20103;-84
2021/11/03 11:56:08;;;;;;;19.53;11.50;;;9.00;99.90;;;;;;5061054;28;20100;-85
2021/11/03 11:58:35;;;;;;;24.63;12.43;;;9.00;99.90;;;;;;5061341;28;20079;-84
2021/11/03 12:01:09;;;;;;;25.27;13.53;;;9.10;99.90;;;;;;5078733;28;20036;-83
2021/11/03 12:03:35;;;;;;;22.70;12.57;;;9.10;99.90;;;;;;5077901;28;20025;-84
2021/11/03 12:06:10;;;;;;;23.67;12.87;;;9.10;99.90;;;;;;5061650;28;20111;-84
2021/11/03 12:09:15;;;;;;;22.77;12.50;;;9.00;99.90;;;;;;5078585;28;20039;-85
2021/11/03 12:11:59;;;;;;;24.67;12.80;;;9.10;99.90;;;;;;5061290;28;20035;-84
2021/11/03 12:14:52;;;;;;;23.27;12.73;;;9.10;99.90;;;;;;5079999;28;20032;-83
2021/11/03 12:17:52;;;;;;;20.17;11.67;;;9.10;99.90;;;;;;5078595;28;20389;-84
2021/11/03 12:20:23;;;;;;;;;;;9.10;99.90;;;;;;5061667;28;20047;-84
2021/11/03 12:22:51;;;;;;;23.50;13.33;;;9.00;99.90;;;;;;5044961;28;19920;-83
2021/11/03 12:25:17;;;;;;;22.23;11.73;;;9.00;99.90;;;;;;5061349;28;20028;-85
2021/11/03 12:27:45;;;;;;;23.87;12.60;;;9.00;99.90;;;;;;5078476;28;20035;-85
2021/11/03 12:30:15;;;;;;;27.00;13.48;;;9.10;99.90;;;;;;5061220;28;20519;-84
2021/11/03 12:32:58;;;;;;;24.27;13.03;;;9.00;99.90;;;;;;5077835;28;20028;-85
2021/11/03 12:35:24;;;;;;;26.07;13.30;;;9.00;99.90;;;;;;5061091;28;20036;-84
2021/11/03 12:38:11;;;;;;;24.40;13.50;;;9.10;99.90;;;;;;5079716;28;20031;-85
2021/11/03 12:40:37;;;;;;;24.00;13.03;;;9.00;99.90;;;;;;5079095;28;20029;-85
2021/11/03 12:43:12;;;;;;;20.97;13.27;;;9.00;99.90;;;;;;5061158;28;20034;-84
2021/11/03 12:45:51;;;;;;;27.30;14.60;;;9.00;99.90;;;;;;5061181;28;20025;-86
2021/11/03 12:48:19;;;;;;;;;;;8.90;99.90;;;;;;5078614;28;20472;-85
2021/11/03 12:50:46;;;;;;;20.97;12.03;;;8.90;99.90;;;;;;5061545;28;19947;-84
2021/11/03 12:53:28;;;;;;;24.93;13.80;;;8.90;99.90;;;;;;5062065;28;20480;-84
2021/11/03 12:56:14;;;;;;;27.63;15.03;;;8.90;99.90;;;;;;5061796;28;20449;-84
2021/11/03 12:58:44;;;;;;;24.47;14.30;;;8.90;99.90;;;;;;5044751;28;20028;-84
2021/11/03 13:01:25;;;;;;;23.40;13.20;;;8.90;99.90;;;;;;5061299;28;20059;-84
2021/11/03 13:03:55;;;;;;;27.20;14.67;;;8.90;99.90;;;;;;5062353;28;20039;-85